Time;durP1;ratioP1;P1;durP2;ratioP2;P2;SDS_P1;SDS_P2;PMS_P1;PMS_P2;Temp;Humidity;BMP_temperature;BMP_pressure;BME280_temperature;BME280_humidity;BME280_pressure;Samples;Min_cycle;Max_cycle;Signal;HPM_P1;HPM_P2
2022/05/02 00:01:36;;;;;;;12.48;7.45;;;;;;;11.57;62.10;101690.22;5048977;28;20096;-67
2022/05/02 00:04:02;;;;;;;10.80;7.15;;;;;;;11.58;61.85;101690.16;5040668;28;20057;-67
2022/05/02 00:06:29;;;;;;;11.15;7.28;;;;;;;11.47;61.89;101674.00;5043379;28;20806;-67
2022/05/02 00:08:55;;;;;;;10.68;6.95;;;;;;;11.34;62.44;101675.41;5055820;28;20094;-72
2022/05/02 00:11:23;;;;;;;12.00;7.32;;;;;;;11.12;62.98;101677.19;5043551;28;20099;-72
2022/05/02 00:13:49;;;;;;;13.68;8.07;;;;;;;11.18;62.53;101676.94;5037644;28;20083;-70
2022/05/02 00:16:15;;;;;;;13.40;8.00;;;;;;;11.07;63.13;101679.13;5029624;28;20394;-71
2022/05/02 00:18:42;;;;;;;11.68;7.35;;;;;;;10.87;63.26;101669.38;5030669;28;20046;-70
2022/05/02 00:21:08;;;;;;;10.65;7.68;;;;;;;10.83;63.74;101665.16;5054727;28;20049;-71
2022/05/02 00:23:34;;;;;;;14.82;7.72;;;;;;;10.91;63.89;101664.88;5065759;28;20064;-71
2022/05/02 00:26:01;;;;;;;12.75;7.60;;;;;;;10.85;64.08;101658.09;5069587;28;20049;-71
2022/05/02 00:28:29;;;;;;;12.38;7.10;;;;;;;10.74;64.25;101663.75;5054018;28;20064;-71
2022/05/02 00:30:55;;;;;;;9.68;7.35;;;;;;;10.78;63.98;101654.00;5047108;28;20053;-71
2022/05/02 00:33:22;;;;;;;11.65;7.38;;;;;;;10.86;63.53;101664.19;5045389;28;20109;-73
2022/05/02 00:35:48;;;;;;;18.58;7.20;;;;;;;10.63;64.02;101662.44;5052485;28;20671;-72
2022/05/02 00:38:15;;;;;;;12.32;7.93;;;;;;;10.50;64.32;101662.03;5056393;28;20053;-72
2022/05/02 00:40:41;;;;;;;15.70;8.18;;;;;;;10.30;65.26;101661.91;5048031;28;20041;-72
2022/05/02 00:43:07;;;;;;;12.65;7.68;;;;;;;10.42;64.88;101664.06;5039078;28;20045;-72
2022/05/02 00:45:38;;;;;;;10.70;7.68;;;;;;;10.27;65.36;101658.53;5032350;28;20405;-72
2022/05/02 00:48:05;;;;;;;12.20;7.57;;;;;;;10.45;64.35;101665.75;5048968;28;20060;-73
2022/05/02 00:50:34;;;;;;;11.07;7.57;;;;;;;10.57;63.87;101660.03;5053004;28;20049;-72
2022/05/02 00:53:02;;;;;;;12.45;7.68;;;;;;;10.30;64.52;101669.78;5060912;28;20052;-72
2022/05/02 00:55:30;;;;;;;11.48;7.90;;;;;;;10.09;64.92;101665.22;5041526;28;20052;-72
2022/05/02 00:57:58;;;;;;;10.43;7.85;;;;;;;10.13;65.45;101672.06;5055908;28;20068;-72
2022/05/02 01:00:24;;;;;;;13.32;8.20;;;;;;;10.21;65.24;101670.94;5062229;28;20125;-72
2022/05/02 01:02:52;;;;;;;12.23;7.57;;;;;;;10.29;64.73;101667.19;5056212;28;20053;-72
2022/05/02 01:05:18;;;;;;;10.68;7.05;;;;;;;10.34;64.46;101660.03;5066902;28;20670;-73
2022/05/02 01:07:46;;;;;;;13.13;7.53;;;;;;;10.59;63.65;101664.31;5076968;28;20088;-72
2022/05/02 01:10:16;;;;;;;13.85;7.30;;;;;;;10.42;65.03;101664.06;5074765;28;20048;-72
2022/05/02 01:13:39;;;;;;;14.23;7.78;;;;;;;10.47;65.08;101653.41;5093433;27;20367;-72
2022/05/02 01:16:11;;;;;;;13.57;7.20;;;;;;;10.42;65.60;101653.56;5085972;28;20438;-72
2022/05/02 01:18:38;;;;;;;11.60;7.10;;;;;;;10.54;65.33;101653.13;5085927;28;20128;-72
2022/05/02 01:21:09;;;;;;;12.65;7.32;;;;;;;10.55;65.24;101649.63;5084852;28;20895;-72
2022/05/02 01:23:35;;;;;;;12.07;7.43;;;;;;;10.70;64.51;101649.03;5117050;27;20563;-72
2022/05/02 01:26:02;;;;;;;10.27;7.38;;;;;;;10.83;64.36;101645.97;5126389;27;20092;-72
2022/05/02 01:28:29;;;;;;;12.43;7.80;;;;;;;10.79;64.82;101645.19;5126448;27;20442;-72
2022/05/02 01:30:55;;;;;;;11.88;7.50;;;;;;;10.74;65.33;101640.16;5125804;27;20046;-72
2022/05/02 01:33:21;;;;;;;11.82;7.75;;;;;;;10.90;65.07;101650.06;5125527;27;20156;-72
2022/05/02 01:35:48;;;;;;;13.15;8.50;;;;;;;10.84;65.70;101650.28;5125283;27;20051;-72
2022/05/02 01:38:15;;;;;;;12.55;6.95;;;;;;;10.92;65.47;101646.44;5125461;27;20047;-72
2022/05/02 01:40:42;;;;;;;11.32;7.90;;;;;;;11.07;64.95;101637.13;5126121;27;20039;-72
2022/05/02 01:43:10;;;;;;;12.70;7.90;;;;;;;11.23;64.67;101641.69;5125926;27;20046;-72
2022/05/02 01:45:36;;;;;;;13.90;7.78;;;;;;;11.21;64.77;101645.28;5126471;27;20730;-72
2022/05/02 01:48:03;;;;;;;12.65;7.75;;;;;;;11.30;64.41;101642.31;5126018;27;20088;-72
2022/05/02 01:50:29;;;;;;;8.98;7.10;;;;;;;11.23;64.35;101640.84;5124008;27;20461;-72
2022/05/02 01:52:55;;;;;;;9.00;7.10;;;;;;;11.42;63.72;101635.72;5125526;27;20063;-72
2022/05/02 01:55:23;;;;;;;12.40;7.75;;;;;;;11.44;63.38;101632.09;5105590;27;20079;-72
2022/05/02 01:57:50;;;;;;;10.45;7.10;;;;;;;11.45;63.76;101638.22;5112126;27;20047;-72
2022/05/02 02:00:17;;;;;;;11.18;7.15;;;;;;;11.46;63.66;101630.25;5125335;27;20047;-72
2022/05/02 02:02:43;;;;;;;11.90;7.65;;;;;;;11.40;64.42;101620.00;5126207;27;20627;-72
2022/05/02 02:07:54;;;;;;;11.65;7.40;;;;;;;11.22;65.15;101626.88;5125526;27;20054;-72
2022/05/02 02:10:20;;;;;;;12.90;7.72;;;;;;;11.26;65.24;101624.97;5124472;27;20040;-72
2022/05/02 02:12:48;;;;;;;10.45;7.82;;;;;;;10.90;66.06;101631.69;5125047;27;20067;-72
2022/05/02 02:15:14;;;;;;;13.48;7.60;;;;;;;10.63;67.07;101633.59;5125690;27;20056;-74
2022/05/02 02:17:41;;;;;;;10.77;7.47;;;;;;;10.84;66.15;101635.38;5125762;27;20047;-72
2022/05/02 02:20:09;;;;;;;13.68;7.68;;;;;;;10.78;66.09;101630.38;5124711;27;20044;-72
2022/05/02 02:22:36;;;;;;;12.85;7.68;;;;;;;10.78;66.02;101632.16;5124981;27;20453;-73
2022/05/02 02:25:03;;;;;;;13.00;8.10;;;;;;;10.79;66.26;101628.63;5111553;28;20116;-72
2022/05/02 02:27:30;;;;;;;13.60;7.32;;;;;;;10.90;65.58;101623.81;5110550;27;20616;-72
2022/05/02 02:29:58;;;;;;;14.48;7.63;;;;;;;11.01;65.04;101626.88;5110749;27;20043;-72
2022/05/02 02:32:24;;;;;;;12.20;7.35;;;;;;;11.03;65.09;101635.53;5111143;27;20058;-72
2022/05/02 02:34:51;;;;;;;12.98;7.80;;;;;;;11.03;64.67;101623.25;5111539;27;20528;-72
2022/05/02 02:37:17;;;;;;;14.20;7.70;;;;;;;11.01;65.00;101632.13;5111410;28;20112;-72
2022/05/02 02:39:44;;;;;;;10.68;7.72;;;;;;;10.82;64.94;101626.75;5110758;28;20453;-72
2022/05/02 02:42:10;;;;;;;12.02;7.15;;;;;;;10.80;65.44;101623.28;5111610;27;20100;-72
2022/05/02 02:44:37;;;;;;;9.80;7.75;;;;;;;10.91;65.25;101615.00;5111299;27;20044;-72
2022/05/02 02:47:05;;;;;;;17.75;7.68;;;;;;;10.84;65.79;101608.28;5111536;27;20036;-72
2022/05/02 02:49:31;;;;;;;13.32;7.93;;;;;;;10.66;66.31;101610.72;5110552;27;20036;-72
2022/05/02 02:51:58;;;;;;;16.17;8.07;;;;;;;10.78;66.09;101606.78;5110628;27;20572;-72
2022/05/02 02:54:24;;;;;;;13.68;7.47;;;;;;;10.82;66.23;101612.75;5111908;27;20077;-72
2022/05/02 02:56:50;;;;;;;13.57;8.02;;;;;;;10.54;67.18;101613.81;5111587;27;20093;-72
2022/05/02 02:59:17;;;;;;;11.90;7.60;;;;;;;10.51;67.38;101608.69;5110634;27;20071;-72
2022/05/02 03:01:43;;;;;;;14.98;7.85;;;;;;;10.55;66.82;101606.78;5111437;28;20044;-72
2022/05/02 03:06:56;;;;;;;11.70;7.57;;;;;;;10.60;66.47;101603.09;5105702;27;20050;-72
2022/05/02 03:09:22;;;;;;;15.25;7.88;;;;;;;10.37;67.59;101603.09;5109599;27;20070;-72
2022/05/02 03:11:49;;;;;;;10.63;7.38;;;;;;;10.08;68.20;101601.50;5124022;27;20028;-72
2022/05/02 03:14:15;;;;;;;10.30;7.43;;;;;;;10.21;67.70;101602.78;5135930;27;20097;-72
2022/05/02 03:16:41;;;;;;;14.13;8.05;;;;;;;10.33;67.30;101598.88;5136394;27;20067;-73
2022/05/02 03:19:08;;;;;;;11.18;7.70;;;;;;;10.25;67.46;101599.16;5124359;28;20057;-72
2022/05/02 03:21:35;;;;;;;11.77;7.93;;;;;;;10.40;67.52;101602.13;5131919;27;20036;-72
2022/05/02 03:24:02;;;;;;;12.15;7.97;;;;;;;10.28;67.68;101603.41;5133721;27;20069;-72
2022/05/02 03:26:28;;;;;;;15.73;8.20;;;;;;;10.41;67.20;101596.84;5127381;27;20540;-72
2022/05/02 03:28:54;;;;;;;11.02;7.50;;;;;;;10.52;66.83;101599.03;5115121;27;20065;-72
2022/05/02 03:31:21;;;;;;;12.48;7.72;;;;;;;10.61;66.75;101596.91;5115597;27;20051;-72
2022/05/02 03:33:47;;;;;;;12.35;7.97;;;;;;;10.54;67.40;101595.44;5115335;27;20096;-72
2022/05/02 03:36:13;;;;;;;14.35;8.25;;;;;;;10.48;67.40;101597.44;5109646;27;20093;-72
2022/05/02 03:38:41;;;;;;;11.18;7.93;;;;;;;10.50;67.88;101603.47;5113782;27;20384;-72
2022/05/02 03:41:07;;;;;;;14.23;7.85;;;;;;;10.62;67.54;101595.16;5113724;27;20055;-72
2022/05/02 03:43:35;;;;;;;12.73;8.15;;;;;;;10.55;67.70;101598.94;5113343;27;20108;-72
2022/05/02 03:46:02;;;;;;;11.73;7.93;;;;;;;10.63;67.66;101592.47;5113410;28;20457;-72
2022/05/02 03:48:29;;;;;;;14.60;7.88;;;;;;;10.83;66.86;101596.94;5113039;28;20051;-72
2022/05/02 03:50:56;;;;;;;15.10;7.47;;;;;;;10.97;66.42;101599.03;5112095;27;20044;-72
2022/05/02 03:53:22;;;;;;;12.88;7.65;;;;;;;11.04;65.96;101590.88;5107111;27;20048;-72
2022/05/02 03:55:50;;;;;;;15.68;8.77;;;;;;;11.35;64.56;101594.84;5104400;28;20056;-72
2022/05/02 03:58:17;;;;;;;15.25;7.75;;;;;;;11.21;65.17;101598.03;5111414;27;20044;-72
2022/05/02 04:00:43;;;;;;;9.70;7.00;;;;;;;11.20;65.70;101597.19;5111397;27;20048;-72
2022/05/02 04:03:09;;;;;;;10.73;7.55;;;;;;;11.20;65.51;101588.44;5112508;27;20039;-72
2022/05/02 04:05:36;;;;;;;10.82;7.30;;;;;;;11.28;65.73;101586.38;5103009;28;20051;-72
2022/05/02 04:08:02;;;;;;;10.75;7.22;;;;;;;11.03;66.78;101588.28;5110117;27;20047;-72
2022/05/02 04:10:28;;;;;;;12.20;7.90;;;;;;;10.87;67.10;101589.81;5106886;27;20654;-72
2022/05/02 04:12:56;;;;;;;11.18;7.20;;;;;;;10.64;68.12;101588.94;5109569;28;20548;-72
2022/05/02 04:15:22;;;;;;;13.82;7.78;;;;;;;10.66;67.80;101588.88;5111108;28;20047;-72
2022/05/02 04:17:49;;;;;;;13.65;7.57;;;;;;;10.97;66.39;101584.16;5092130;28;20051;-72
2022/05/02 04:20:15;;;;;;;10.40;7.03;;;;;;;11.22;65.40;101587.50;5099490;28;20055;-72
2022/05/02 04:22:42;;;;;;;10.70;7.30;;;;;;;11.48;65.35;101578.53;5107028;28;20458;-73
2022/05/02 04:25:09;;;;;;;13.80;7.15;;;;;;;11.56;65.03;101579.06;5100493;27;20096;-73
2022/05/02 04:27:36;;;;;;;12.63;7.40;;;;;;;11.56;65.02;101572.97;5111243;27;20063;-73
2022/05/02 04:30:04;;;;;;;10.60;6.75;;;;;;;11.60;65.09;101579.78;5105299;27;20388;-72
2022/05/02 04:32:31;;;;;;;13.30;7.72;;;;;;;11.59;64.90;101576.31;5111200;28;20043;-72
2022/05/02 04:34:58;;;;;;;13.30;7.55;;;;;;;11.48;64.74;101581.16;5101957;28;20089;-73
2022/05/02 04:37:25;;;;;;;11.02;7.22;;;;;;;11.44;65.91;101587.47;5110040;27;20062;-73
2022/05/02 04:39:51;;;;;;;11.38;8.00;;;;;;;11.67;65.13;101586.50;5104240;27;20561;-73
2022/05/02 04:42:18;;;;;;;8.85;6.97;;;;;;;11.74;65.25;101593.22;5092425;28;20569;-73
2022/05/02 04:44:44;;;;;;;15.15;7.93;;;;;;;11.85;65.10;101582.25;5110604;28;20460;-73
2022/05/02 04:47:12;;;;;;;11.00;7.45;;;;;;;12.14;63.62;101589.69;5110260;28;20375;-73
2022/05/02 04:49:38;;;;;;;12.40;7.28;;;;;;;12.03;64.35;101584.91;5109058;28;20045;-73
2022/05/02 04:52:05;;;;;;;11.13;7.70;;;;;;;12.14;63.56;101579.19;5110576;27;20057;-73
2022/05/02 04:54:32;;;;;;;15.93;7.47;;;;;;;11.76;64.72;101582.63;5106542;28;20047;-73
2022/05/02 04:56:58;;;;;;;9.75;6.88;;;;;;;11.58;64.34;101595.59;5089856;28;20040;-73
2022/05/02 04:59:24;;;;;;;11.48;7.50;;;;;;;11.87;63.82;101590.91;5090150;28;20101;-72
2022/05/02 05:01:51;;;;;;;11.05;7.00;;;;;;;12.18;62.90;101591.28;5098417;28;20047;-73
2022/05/02 05:04:18;;;;;;;10.90;6.40;;;;;;;12.49;61.63;101588.13;5095095;28;20560;-72
2022/05/02 05:06:45;;;;;;;10.35;6.88;;;;;;;12.75;61.22;101584.28;5110224;27;20043;-73
2022/05/02 05:09:11;;;;;;;20.00;6.97;;;;;;;12.84;62.05;101586.44;5109096;27;20069;-73
2022/05/02 05:11:46;;;;;;;8.18;6.65;;;;;;;12.95;62.69;101592.06;5109427;28;20040;-73
2022/05/02 05:17:15;;;;;;;10.80;6.90;;;;;;;12.89;60.88;101582.69;5102091;28;20093;-73
2022/05/02 05:20:00;;;;;;;10.90;7.28;;;;;;;13.12;61.85;101594.75;5103934;28;20108;-73
2022/05/02 05:22:42;;;;;;;11.95;6.50;;;;;;;13.31;60.28;101589.44;5109107;27;20101;-73
2022/05/02 05:25:21;;;;;;;8.43;6.22;;;;;;;13.40;59.66;101595.13;5101472;28;20044;-73
2022/05/02 05:27:53;;;;;;;12.13;7.10;;;;;;;13.55;59.01;101590.84;5088564;28;20048;-73
2022/05/02 05:30:21;;;;;;;10.02;6.80;;;;;;;13.57;59.25;101586.34;5096971;28;20044;-73
2022/05/02 05:32:57;;;;;;;10.48;7.07;;;;;;;13.43;60.59;101594.09;5110134;28;20503;-73
2022/05/02 05:35:36;;;;;;;9.80;6.88;;;;;;;13.30;60.96;101593.00;5102031;28;20372;-73
2022/05/02 05:38:03;;;;;;;8.90;5.80;;;;;;;13.42;60.53;101595.88;5105510;27;20047;-73
2022/05/02 05:40:35;;;;;;;10.45;6.45;;;;;;;13.64;59.92;101591.22;5109137;27;20419;-73
2022/05/02 05:43:11;;;;;;;12.13;6.25;;;;;;;13.70;61.19;101587.44;5109620;28;20040;-73
2022/05/02 05:45:49;;;;;;;8.65;6.03;;;;;;;13.68;59.86;101584.03;5095257;28;20063;-73
2022/05/02 05:48:26;;;;;;;10.50;6.90;;;;;;;13.82;60.34;101583.34;5109216;28;20043;-73
2022/05/02 05:51:02;;;;;;;10.93;6.68;;;;;;;13.96;59.47;101579.03;5102371;27;20036;-73
2022/05/02 05:53:38;;;;;;;13.48;6.38;;;;;;;13.76;60.82;101575.72;5108473;27;20627;-74
2022/05/02 05:56:23;;;;;;;11.98;6.53;;;;;;;13.73;59.65;101571.47;5108417;27;20047;-73
2022/05/02 05:59:03;;;;;;;10.82;6.30;;;;;;;13.69;59.93;101574.34;5109271;27;20122;-73
2022/05/02 06:01:47;;;;;;;10.93;6.70;;;;;;;13.75;59.32;101584.56;5113167;27;20047;-73
2022/05/02 06:04:16;;;;;;;9.45;5.95;;;;;;;13.61;58.68;101588.75;5109590;27;20092;-73
2022/05/02 06:06:45;;;;;;;8.98;6.05;;;;;;;13.91;59.31;101596.88;5104934;27;20055;-72
2022/05/02 06:09:15;;;;;;;19.17;6.25;;;;;;;14.06;59.76;101589.94;5110772;27;20442;-72
2022/05/02 06:11:41;;;;;;;10.18;6.57;;;;;;;14.11;59.86;101588.78;5110243;28;20047;-73
2022/05/02 06:14:11;;;;;;;9.90;6.32;;;;;;;14.18;59.73;101576.13;5109453;27;20544;-73
2022/05/02 06:19:26;;;;;;;11.93;6.53;;;;;;;14.33;61.93;101590.28;5095489;28;20286;-66
2022/05/02 06:21:55;;;;;;;15.57;6.57;;;;;;;14.45;58.64;101587.84;5105683;27;20043;-73
2022/05/02 06:24:25;;;;;;;17.52;6.70;;;;;;;14.38;59.51;101594.38;5105641;28;20051;-73
2022/05/02 06:26:52;;;;;;;14.88;7.50;;;;;;;14.50;59.06;101590.25;5110986;27;20599;-73
2022/05/02 06:29:21;;;;;;;12.90;6.68;;;;;;;14.83;58.58;101591.03;5106497;27;20100;-73
2022/05/02 06:31:51;;;;;;;14.23;6.53;;;;;;;15.34;57.42;101600.41;5098129;28;20457;-73
2022/05/02 06:34:23;;;;;;;11.18;6.55;;;;;;;15.63;56.46;101585.50;5111225;28;20043;-73
2022/05/02 06:36:59;;;;;;;9.32;6.07;;;;;;;16.35;53.85;101579.34;5110100;27;20043;-73
2022/05/02 06:39:38;;;;;;;10.55;6.15;;;;;;;17.18;52.71;101574.00;5110136;27;20039;-73
2022/05/02 06:42:20;;;;;;;14.35;6.05;;;;;;;17.17;50.95;101577.59;5090638;28;20090;-73
2022/05/02 06:44:59;;;;;;;10.47;6.00;;;;;;;17.97;50.58;101579.22;5090849;27;20119;-73
2022/05/02 06:47:32;;;;;;;11.00;6.60;;;;;;;18.23;49.37;101575.59;5100599;28;20335;-72
2022/05/02 06:50:03;;;;;;;17.33;6.57;;;;;;;18.39;48.08;101578.03;5110123;27;20048;-72
2022/05/02 06:52:33;;;;;;;10.23;6.05;;;;;;;18.05;49.53;101576.03;5101277;27;20157;-72
2022/05/02 06:55:10;;;;;;;7.13;5.45;;;;;;;17.90;47.66;101576.16;5103535;27;20407;-72
2022/05/02 06:57:45;;;;;;;10.43;6.15;;;;;;;17.83;48.04;101576.69;5108575;27;20071;-72
2022/05/02 07:00:14;;;;;;;13.00;6.22;;;;;;;17.80;49.72;101585.72;5109714;27;20047;-73
2022/05/02 07:03:16;;;;;;;13.32;6.10;;;;;;;17.65;48.75;101580.59;5093227;28;20510;-73
2022/05/02 07:05:56;;;;;;;8.85;5.80;;;;;;;17.85;46.80;101572.97;5092455;28;20047;-74
2022/05/02 07:08:28;;;;;;;6.68;5.28;;;;;;;17.99;48.78;101574.69;5109655;27;20652;-73
2022/05/02 07:10:59;;;;;;;8.43;5.65;;;;;;;18.12;50.07;101575.50;5089548;28;20044;-73
2022/05/02 07:13:39;;;;;;;8.82;5.68;;;;;;;18.39;46.61;101578.03;5104401;27;20036;-73
2022/05/02 07:16:16;;;;;;;9.50;6.28;;;;;;;18.26;49.99;101585.16;5092713;27;20091;-73
2022/05/02 07:18:50;;;;;;;8.77;5.75;;;;;;;18.91;48.38;101576.00;5106585;27;20465;-73
2022/05/02 07:21:29;;;;;;;7.35;5.47;;;;;;;18.77;47.16;101583.28;5107573;28;20040;-73
2022/05/02 07:24:10;;;;;;;9.80;5.53;;;;;;;18.95;50.87;101573.97;5110000;27;20461;-73
2022/05/02 07:26:38;;;;;;;10.30;5.63;;;;;;;19.53;46.72;101564.31;5110437;27;20044;-73
2022/05/02 07:29:06;;;;;;;8.77;5.35;;;;;;;20.02;48.04;101574.72;5109040;28;20035;-73
2022/05/02 07:31:33;;;;;;;12.05;5.10;;;;;;;20.20;44.68;101565.28;5110544;27;20499;-73
2022/05/02 07:34:02;;;;;;;9.15;5.40;;;;;;;20.45;44.18;101562.38;5100435;27;20044;-73
2022/05/02 07:36:31;;;;;;;7.72;5.22;;;;;;;20.87;44.49;101566.06;5105470;27;20052;-73
2022/05/02 07:39:02;;;;;;;10.82;4.68;;;;;;;21.59;39.78;101552.94;5108883;27;20073;-73
2022/05/02 07:41:29;;;;;;;9.65;4.82;;;;;;;22.00;38.72;101554.75;5110269;27;20051;-73
2022/05/02 07:44:02;;;;;;;5.75;4.28;;;;;;;22.29;34.73;101555.72;5109789;27;20065;-73
2022/05/02 07:46:31;;;;;;;6.93;4.13;;;;;;;22.13;35.88;101553.56;5110354;27;20044;-73
2022/05/02 07:48:59;;;;;;;8.18;4.60;;;;;;;21.03;38.33;101557.66;5108817;27;20100;-73
2022/05/02 07:51:27;;;;;;;5.78;4.47;;;;;;;21.43;37.19;101557.91;5104479;27;20054;-73
2022/05/02 07:53:54;;;;;;;7.80;4.30;;;;;;;21.32;38.33;101551.63;5109591;28;20407;-73
2022/05/02 07:56:27;;;;;;;14.82;5.13;;;;;;;21.39;37.84;101559.13;5109901;28;20047;-73
2022/05/02 07:58:55;;;;;;;7.82;5.00;;;;;;;21.32;38.93;101556.94;5108622;27;20088;-73
2022/05/02 08:01:23;;;;;;;12.32;5.40;;;;;;;21.85;40.11;101562.22;5109258;27;20082;-73
2022/05/02 08:03:49;;;;;;;8.63;4.68;;;;;;;22.05;34.40;101558.72;5109448;28;20533;-73
2022/05/02 08:06:29;;;;;;;7.28;4.53;;;;;;;22.05;37.64;101553.38;5108609;27;20047;-74
2022/05/02 08:09:02;;;;;;;8.57;5.10;;;;;;;21.87;35.68;101548.75;5101519;27;20496;-74
2022/05/02 08:11:42;;;;;;;9.65;5.35;;;;;;;22.29;37.37;101559.25;5109541;27;20509;-74
2022/05/02 08:14:14;;;;;;;5.43;4.25;;;;;;;21.69;38.42;101553.88;5108843;27;20054;-74
2022/05/02 08:16:53;;;;;;;7.63;4.20;;;;;;;22.81;38.22;101549.28;5118215;27;20170;-74
2022/05/02 08:19:32;;;;;;;8.23;4.30;;;;;;;22.74;35.34;101549.00;5115857;27;20092;-74
2022/05/02 08:28:01;;;;;;;7.72;3.95;;;;;;;23.08;36.21;101551.28;5075777;27;20055;-74
2022/05/02 08:30:34;;;;;;;4.97;3.40;;;;;;;21.63;36.68;101552.56;5108276;28;20461;-74
2022/05/02 08:33:04;;;;;;;5.20;3.40;;;;;;;22.42;34.04;101545.66;5101294;27;20058;-74
2022/05/02 08:35:43;;;;;;;5.75;3.65;;;;;;;23.14;34.25;101548.03;5105746;27;20047;-73
2022/05/02 08:38:32;;;;;;;8.60;3.85;;;;;;;23.42;35.23;101541.03;5108403;27;20058;-74
2022/05/02 08:41:23;;;;;;;42.63;6.05;;;;;;;22.85;32.17;101548.03;5128386;27;20039;-74
2022/05/02 08:44:24;;;;;;;15.80;4.80;;;;;;;22.32;31.96;101548.28;5128952;27;20050;-74
2022/05/02 08:47:26;;;;;;;37.80;4.93;;;;;;;22.68;36.84;101551.38;5119074;27;20059;-74
2022/05/02 08:50:24;;;;;;;6.40;3.58;;;;;;;22.83;40.96;101546.47;5108300;27;20039;-73
2022/05/02 08:53:32;;;;;;;9.43;4.13;;;;;;;23.07;31.40;101544.25;5045461;28;20099;-73
2022/05/02 08:56:10;;;;;;;7.93;4.03;;;;;;;23.66;34.48;101533.38;5112877;27;20051;-73
2022/05/02 08:59:05;;;;;;;9.50;4.22;;;;;;;23.60;35.20;101536.63;5108479;28;20048;-73
2022/05/02 09:02:28;;;;;;;14.18;4.63;;;;;;;23.13;32.90;101533.81;5108825;28;20108;-73
2022/05/02 09:05:29;;;;;;;5.18;3.70;;;;;;;23.60;34.45;101528.59;5109536;27;20040;-74
2022/05/02 09:08:31;;;;;;;7.03;4.07;;;;;;;24.60;31.62;101522.44;5102187;27;20039;-74
2022/05/02 09:11:12;;;;;;;6.53;3.90;;;;;;;24.41;33.77;101530.59;5107426;28;20411;-74
2022/05/02 09:14:16;;;;;;;8.07;4.13;;;;;;;25.33;33.46;101514.25;5107966;28;20070;-74
2022/05/02 09:17:22;;;;;;;16.67;4.15;;;;;;;24.96;29.60;101511.75;5093087;28;20036;-74
2022/05/02 09:20:14;;;;;;;6.38;3.60;;;;;;;25.37;29.06;101518.31;5111281;27;20043;-74
2022/05/02 09:23:07;;;;;;;7.60;3.88;;;;;;;25.83;32.66;101522.53;5109234;27;20419;-74
2022/05/02 09:25:40;;;;;;;7.82;4.13;;;;;;;25.10;30.13;101524.63;5108442;27;20039;-74
2022/05/02 09:28:20;;;;;;;7.43;3.85;;;;;;;24.14;31.04;101523.38;5108273;27;20081;-74
2022/05/02 09:31:19;;;;;;;7.78;4.25;;;;;;;24.34;31.38;101524.13;5125058;27;20122;-74
2022/05/02 09:33:56;;;;;;;9.40;4.40;;;;;;;24.23;31.10;101514.47;5108712;28;20563;-74
2022/05/02 09:36:28;;;;;;;9.60;4.53;;;;;;;24.12;31.75;101519.97;5110391;27;20063;-74
2022/05/02 09:39:03;;;;;;;5.03;3.93;;;;;;;24.16;33.49;101518.72;5113022;27;20533;-74
2022/05/02 09:42:09;;;;;;;8.95;4.22;;;;;;;24.36;34.46;101521.28;5133249;27;20713;-74
2022/05/02 09:50:53;;;;;;;8.15;3.85;;;;;;;24.76;33.59;101508.31;5110154;27;20050;-74
2022/05/02 09:53:35;;;;;;;6.82;4.00;;;;;;;24.61;31.29;101509.88;5112108;27;20092;-74
2022/05/02 09:58:57;;;;;;;9.68;4.70;;;;;;;24.89;33.70;101502.63;5111313;27;20050;-74
2022/05/02 10:01:27;;;;;;;9.38;4.07;;;;;;;25.29;33.56;101497.63;5132320;27;20051;-74
2022/05/02 10:04:30;;;;;;;10.13;4.65;;;;;;;25.66;34.31;101495.56;5132541;27;20043;-74
2022/05/02 10:07:04;;;;;;;10.02;4.13;;;;;;;26.16;33.45;101498.31;5111719;27;20105;-73
2022/05/02 10:09:43;;;;;;;7.68;3.90;;;;;;;25.82;27.45;101486.75;5128694;27;20068;-73
2022/05/02 10:12:24;;;;;;;7.13;4.00;;;;;;;26.67;30.53;101488.44;5132432;27;20543;-73
2022/05/02 10:14:57;;;;;;;8.73;3.67;;;;;;;25.37;35.57;101486.94;5131419;27;20058;-73
2022/05/02 10:18:00;;;;;;;7.68;3.65;;;;;;;24.05;33.95;101485.88;5118055;27;20050;-74
2022/05/02 10:20:38;;;;;;;8.50;4.38;;;;;;;23.92;34.12;101480.00;5109382;27;20101;-74
2022/05/02 10:23:20;;;;;;;7.32;4.20;;;;;;;24.17;33.52;101480.19;5111232;27;20514;-73
2022/05/02 10:25:59;;;;;;;16.17;4.15;;;;;;;24.89;34.58;101476.66;5107645;27;20039;-74
2022/05/02 10:29:11;;;;;;;9.38;4.10;;;;;;;25.07;31.17;101464.06;5110350;27;20044;-73
2022/05/02 10:31:40;;;;;;;7.80;4.20;;;;;;;25.43;32.08;101469.34;5076401;27;20085;-74
2022/05/02 10:34:13;;;;;;;7.88;4.30;;;;;;;25.38;30.25;101461.78;5109826;28;20155;-74
2022/05/02 10:36:42;;;;;;;6.68;4.18;;;;;;;25.72;32.70;101466.38;5110848;28;20044;-74
2022/05/02 10:39:16;;;;;;;7.75;4.95;;;;;;;25.10;29.40;101449.47;5110206;27;20055;-74
2022/05/02 10:41:46;;;;;;;9.48;4.35;;;;;;;25.35;35.17;101456.69;5095742;28;20094;-74
2022/05/02 10:44:17;;;;;;;6.22;3.88;;;;;;;25.46;31.89;101447.56;5105409;27;20042;-74
2022/05/02 10:46:45;;;;;;;7.80;4.97;;;;;;;26.15;32.01;101456.34;5111245;27;20487;-74
2022/05/02 10:49:22;;;;;;;8.25;4.90;;;;;;;26.26;29.58;101446.31;5110355;28;20043;-74
2022/05/02 10:52:02;;;;;;;9.23;5.40;;;;;;;25.24;27.33;101443.53;5103096;27;20080;-74
2022/05/02 10:54:40;;;;;;;8.00;4.80;;;;;;;24.98;31.09;101435.47;5110554;28;20618;-74
2022/05/02 10:57:18;;;;;;;8.63;4.50;;;;;;;24.53;33.80;101432.88;5111075;28;20514;-74
2022/05/02 10:59:45;;;;;;;6.93;4.82;;;;;;;24.52;29.66;101430.34;5110261;28;20035;-74
2022/05/02 11:02:32;;;;;;;9.27;4.20;;;;;;;24.41;34.77;101428.72;5106323;27;20452;-73
2022/05/02 11:05:10;;;;;;;8.70;5.10;;;;;;;24.45;29.80;101429.25;5099845;27;20041;-73
2022/05/02 11:07:46;;;;;;;8.30;4.85;;;;;;;23.74;30.75;101429.06;5110253;27;20039;-73
2022/05/02 11:10:14;;;;;;;9.55;5.10;;;;;;;22.49;32.51;101428.38;5099722;27;20356;-73
2022/05/02 11:12:43;;;;;;;7.88;5.28;;;;;;;23.02;40.62;101432.31;5110610;27;20052;-73
2022/05/02 11:15:14;;;;;;;8.02;5.35;;;;;;;23.88;32.50;101420.53;5099644;27;20040;-73
2022/05/02 11:18:07;;;;;;;9.65;5.10;;;;;;;23.93;31.06;101418.25;5105007;27;20412;-74
2022/05/02 11:20:45;;;;;;;8.10;5.20;;;;;;;23.99;35.90;101420.34;5108218;27;20043;-73
2022/05/02 11:23:30;;;;;;;11.27;5.20;;;;;;;23.95;32.84;101416.28;5110646;27;20530;-73
2022/05/02 11:26:05;;;;;;;13.45;5.07;;;;;;;24.51;33.92;101417.91;5111172;27;20667;-73
2022/05/02 11:28:43;;;;;;;8.93;4.97;;;;;;;24.96;33.68;101402.59;5124175;27;20043;-68
2022/05/02 11:31:20;;;;;;;9.43;4.75;;;;;;;24.89;34.02;101400.69;5110249;27;20059;-73
2022/05/02 11:33:57;;;;;;;9.43;5.68;;;;;;;24.02;31.57;101398.59;5110231;28;20043;-73
2022/05/02 11:36:29;;;;;;;7.95;4.90;;;;;;;24.27;32.30;101404.28;5109745;27;20035;-74
2022/05/02 11:39:05;;;;;;;;;;;;;;;24.69;30.85;101392.78;5102834;27;20036;-68
2022/05/02 11:41:33;;;;;;;7.97;5.18;;;;;;;24.42;33.10;101400.09;5110305;27;19927;-68
2022/05/02 11:44:09;;;;;;;8.10;5.50;;;;;;;23.90;33.53;101397.13;5109975;27;20560;-68
2022/05/02 11:46:43;;;;;;;8.00;5.47;;;;;;;22.90;32.72;101390.69;5089800;28;20052;-68
2022/05/02 11:49:18;;;;;;;10.95;5.95;;;;;;;23.28;35.90;101390.59;5088986;28;20068;-68
2022/05/02 11:51:46;;;;;;;9.15;5.28;;;;;;;23.48;35.27;101390.56;5109128;27;20092;-68
2022/05/02 11:54:39;;;;;;;7.72;5.03;;;;;;;24.66;35.89;101373.47;5109546;28;20047;-68
2022/05/02 11:57:17;;;;;;;8.27;5.00;;;;;;;25.86;33.48;101379.81;5108831;28;20040;-68
2022/05/02 11:59:52;;;;;;;10.20;5.60;;;;;;;25.66;33.46;101373.84;5109014;28;20438;-68
2022/05/02 12:02:32;;;;;;;8.10;5.00;;;;;;;26.07;31.78;101375.66;5110019;27;20051;-69
2022/05/02 12:05:02;;;;;;;6.75;5.60;;;;;;;25.38;31.68;101372.34;5111683;27;20039;-69
2022/05/02 12:07:31;;;;;;;7.85;5.22;;;;;;;25.47;35.22;101360.63;5109742;27;20043;-69
2022/05/02 12:10:03;;;;;;;7.55;5.07;;;;;;;25.17;31.07;101365.50;5108808;27;20043;-69
2022/05/02 12:12:31;;;;;;;8.85;5.30;;;;;;;24.59;30.79;101361.69;5109301;27;20100;-66
2022/05/02 12:15:01;;;;;;;9.13;5.82;;;;;;;24.67;29.07;101351.03;5115885;27;20043;-68